sensor_id;sensor_type;location;lat;lon;timestamp;temperature;humidity
3154;DHT22;1587;48.630;9.046;2024-01-16T00:00:22;-3.30;99.90
3154;DHT22;1587;48.630;9.046;2024-01-16T00:02:48;-3.10;99.90
3154;DHT22;1587;48.630;9.046;2024-01-16T00:05:13;-3.20;99.90
3154;DHT22;1587;48.630;9.046;2024-01-16T00:07:39;-2.30;99.90
3154;DHT22;1587;48.630;9.046;2024-01-16T00:10:08;-3.00;99.90
3154;DHT22;1587;48.630;9.046;2024-01-16T00:12:33;-3.10;99.90
3154;DHT22;1587;48.630;9.046;2024-01-16T00:14:59;-3.00;99.90
3154;DHT22;1587;48.630;9.046;2024-01-16T00:17:24;-3.00;99.90
3154;DHT22;1587;48.630;9.046;2024-01-16T00:19:49;-2.90;99.90
3154;DHT22;1587;48.630;9.046;2024-01-16T00:22:15;-3.00;99.90
3154;DHT22;1587;48.630;9.046;2024-01-16T00:24:41;-2.90;99.90
3154;DHT22;1587;48.630;9.046;2024-01-16T00:27:06;-2.90;99.90
3154;DHT22;1587;48.630;9.046;2024-01-16T00:29:32;-2.90;99.90
3154;DHT22;1587;48.630;9.046;2024-01-16T00:31:57;-2.90;99.90
3154;DHT22;1587;48.630;9.046;2024-01-16T00:34:22;-3.00;99.90
3154;DHT22;1587;48.630;9.046;2024-01-16T00:36:48;-3.00;99.90
3154;DHT22;1587;48.630;9.046;2024-01-16T00:39:13;-3.00;99.90
3154;DHT22;1587;48.630;9.046;2024-01-16T00:41:39;-2.90;99.90
3154;DHT22;1587;48.630;9.046;2024-01-16T00:44:04;-2.90;99.90
3154;DHT22;1587;48.630;9.046;2024-01-16T00:46:30;-2.90;99.90
3154;DHT22;1587;48.630;9.046;2024-01-16T00:48:55;-2.90;99.90
3154;DHT22;1587;48.630;9.046;2024-01-16T00:51:21;-2.90;99.90
3154;DHT22;1587;48.630;9.046;2024-01-16T00:53:46;-2.90;99.90
3154;DHT22;1587;48.630;9.046;2024-01-16T00:56:12;-2.90;99.90
3154;DHT22;1587;48.630;9.046;2024-01-16T00:58:38;-2.80;99.90
3154;DHT22;1587;48.630;9.046;2024-01-16T01:01:03;-2.80;99.90
3154;DHT22;1587;48.630;9.046;2024-01-16T01:03:29;-2.80;99.90
3154;DHT22;1587;48.630;9.046;2024-01-16T01:05:55;-2.80;99.90
3154;DHT22;1587;48.630;9.046;2024-01-16T01:08:20;-2.90;99.90
3154;DHT22;1587;48.630;9.046;2024-01-16T01:10:46;-0.80;99.90
3154;DHT22;1587;48.630;9.046;2024-01-16T01:13:12;-2.60;99.90
3154;DHT22;1587;48.630;9.046;2024-01-16T01:18:04;-2.70;99.90
3154;DHT22;1587;48.630;9.046;2024-01-16T01:20:29;-2.70;99.90
3154;DHT22;1587;48.630;9.046;2024-01-16T01:22:55;-2.90;99.90
3154;DHT22;1587;48.630;9.046;2024-01-16T01:25:20;-2.60;99.90
3154;DHT22;1587;48.630;9.046;2024-01-16T01:27:47;-2.90;99.90
3154;DHT22;1587;48.630;9.046;2024-01-16T01:30:12;-2.80;99.90
3154;DHT22;1587;48.630;9.046;2024-01-16T01:32:38;-2.70;99.90
3154;DHT22;1587;48.630;9.046;2024-01-16T01:35:04;-2.70;99.90
3154;DHT22;1587;48.630;9.046;2024-01-16T01:37:29;-2.70;99.90
3154;DHT22;1587;48.630;9.046;2024-01-16T01:39:55;-2.80;99.90
3154;DHT22;1587;48.630;9.046;2024-01-16T01:42:20;-2.70;99.90
3154;DHT22;1587;48.630;9.046;2024-01-16T01:44:46;-3.20;99.90
3154;DHT22;1587;48.630;9.046;2024-01-16T01:47:12;-2.70;99.90
3154;DHT22;1587;48.630;9.046;2024-01-16T01:49:37;-2.90;99.90
3154;DHT22;1587;48.630;9.046;2024-01-16T01:52:03;-2.90;99.90
3154;DHT22;1587;48.630;9.046;2024-01-16T01:54:29;-2.90;99.90
3154;DHT22;1587;48.630;9.046;2024-01-16T01:56:56;-3.00;99.90
3154;DHT22;1587;48.630;9.046;2024-01-16T01:59:21;-3.10;99.90
3154;DHT22;1587;48.630;9.046;2024-01-16T02:01:48;-3.10;99.90
3154;DHT22;1587;48.630;9.046;2024-01-16T02:04:15;-3.50;99.90
3154;DHT22;1587;48.630;9.046;2024-01-16T02:06:42;-3.30;99.90
3154;DHT22;1587;48.630;9.046;2024-01-16T02:09:09;-3.20;99.90
3154;DHT22;1587;48.630;9.046;2024-01-16T02:11:35;-3.30;99.90
3154;DHT22;1587;48.630;9.046;2024-01-16T02:14:01;-3.30;99.90
3154;DHT22;1587;48.630;9.046;2024-01-16T02:16:34;-3.30;99.90
3154;DHT22;1587;48.630;9.046;2024-01-16T02:19:00;-3.50;99.90
3154;DHT22;1587;48.630;9.046;2024-01-16T02:21:27;-3.60;99.90
3154;DHT22;1587;48.630;9.046;2024-01-16T02:23:53;-3.70;99.90
3154;DHT22;1587;48.630;9.046;2024-01-16T02:26:19;-3.60;99.90
3154;DHT22;1587;48.630;9.046;2024-01-16T02:28:45;-3.60;99.90
3154;DHT22;1587;48.630;9.046;2024-01-16T02:31:10;-3.80;99.90
3154;DHT22;1587;48.630;9.046;2024-01-16T02:33:36;-3.60;99.90
3154;DHT22;1587;48.630;9.046;2024-01-16T02:36:01;-3.80;99.90
3154;DHT22;1587;48.630;9.046;2024-01-16T02:38:27;-3.70;99.90
3154;DHT22;1587;48.630;9.046;2024-01-16T02:40:52;-2.70;99.90
3154;DHT22;1587;48.630;9.046;2024-01-16T02:43:18;-3.70;99.90
3154;DHT22;1587;48.630;9.046;2024-01-16T02:45:43;-3.80;99.90
3154;DHT22;1587;48.630;9.046;2024-01-16T02:48:09;-3.80;99.90
3154;DHT22;1587;48.630;9.046;2024-01-16T02:50:34;-3.80;99.90
3154;DHT22;1587;48.630;9.046;2024-01-16T02:53:00;-3.70;99.90
3154;DHT22;1587;48.630;9.046;2024-01-16T02:55:25;-3.70;99.90
3154;DHT22;1587;48.630;9.046;2024-01-16T02:57:51;-3.70;99.90
3154;DHT22;1587;48.630;9.046;2024-01-16T03:00:16;-3.70;99.90
3154;DHT22;1587;48.630;9.046;2024-01-16T03:02:43;-3.60;99.90
3154;DHT22;1587;48.630;9.046;2024-01-16T03:05:09;-3.80;99.90
3154;DHT22;1587;48.630;9.046;2024-01-16T03:07:35;-3.70;99.90
3154;DHT22;1587;48.630;9.046;2024-01-16T03:10:00;-4.00;99.90
3154;DHT22;1587;48.630;9.046;2024-01-16T03:12:26;-4.30;99.90
3154;DHT22;1587;48.630;9.046;2024-01-16T03:14:51;-4.00;99.90
3154;DHT22;1587;48.630;9.046;2024-01-16T03:17:20;-3.80;99.90
3154;DHT22;1587;48.630;9.046;2024-01-16T03:19:45;-3.90;99.90
3154;DHT22;1587;48.630;9.046;2024-01-16T03:22:11;-3.80;99.90
3154;DHT22;1587;48.630;9.046;2024-01-16T03:24:36;-3.90;99.90
3154;DHT22;1587;48.630;9.046;2024-01-16T03:27:02;-3.90;99.90
3154;DHT22;1587;48.630;9.046;2024-01-16T03:29:29;-3.90;99.90
3154;DHT22;1587;48.630;9.046;2024-01-16T03:31:54;-3.80;99.90
3154;DHT22;1587;48.630;9.046;2024-01-16T03:34:20;-3.80;99.90
3154;DHT22;1587;48.630;9.046;2024-01-16T03:36:45;-3.80;99.90
3154;DHT22;1587;48.630;9.046;2024-01-16T03:41:37;-3.90;99.90
3154;DHT22;1587;48.630;9.046;2024-01-16T03:44:03;-4.10;99.90
3154;DHT22;1587;48.630;9.046;2024-01-16T03:46:28;-4.30;99.90
3154;DHT22;1587;48.630;9.046;2024-01-16T03:48:54;-4.70;99.90
3154;DHT22;1587;48.630;9.046;2024-01-16T03:51:19;-4.60;99.90
3154;DHT22;1587;48.630;9.046;2024-01-16T03:53:45;-4.50;99.90
3154;DHT22;1587;48.630;9.046;2024-01-16T03:56:10;-4.80;99.90
3154;DHT22;1587;48.630;9.046;2024-01-16T03:58:37;-5.00;99.90
3154;DHT22;1587;48.630;9.046;2024-01-16T04:01:02;-5.10;99.90
3154;DHT22;1587;48.630;9.046;2024-01-16T04:03:28;-5.10;99.90
3154;DHT22;1587;48.630;9.046;2024-01-16T04:08:19;-5.00;99.90
3154;DHT22;1587;48.630;9.046;2024-01-16T04:10:45;-5.40;99.90
3154;DHT22;1587;48.630;9.046;2024-01-16T04:13:10;-5.40;99.90
3154;DHT22;1587;48.630;9.046;2024-01-16T04:15:39;-5.90;99.90
3154;DHT22;1587;48.630;9.046;2024-01-16T04:18:04;-5.80;99.90
3154;DHT22;1587;48.630;9.046;2024-01-16T04:20:30;-5.50;99.90
3154;DHT22;1587;48.630;9.046;2024-01-16T04:22:56;-5.50;99.90
3154;DHT22;1587;48.630;9.046;2024-01-16T04:25:21;-5.50;99.90
3154;DHT22;1587;48.630;9.046;2024-01-16T04:27:47;-5.90;99.90
3154;DHT22;1587;48.630;9.046;2024-01-16T04:30:12;-6.00;99.90
3154;DHT22;1587;48.630;9.046;2024-01-16T04:32:38;-6.00;99.90
3154;DHT22;1587;48.630;9.046;2024-01-16T04:35:03;-6.10;99.90
3154;DHT22;1587;48.630;9.046;2024-01-16T04:37:29;-6.10;99.90
3154;DHT22;1587;48.630;9.046;2024-01-16T04:39:54;-6.10;99.90
3154;DHT22;1587;48.630;9.046;2024-01-16T04:42:20;-6.00;99.90
3154;DHT22;1587;48.630;9.046;2024-01-16T04:44:45;-6.00;99.90
3154;DHT22;1587;48.630;9.046;2024-01-16T04:47:11;-6.10;99.90
3154;DHT22;1587;48.630;9.046;2024-01-16T04:49:37;-6.10;99.90
3154;DHT22;1587;48.630;9.046;2024-01-16T04:52:02;-6.10;99.90
3154;DHT22;1587;48.630;9.046;2024-01-16T04:54:28;-6.70;99.90
3154;DHT22;1587;48.630;9.046;2024-01-16T04:56:54;-6.40;99.90
3154;DHT22;1587;48.630;9.046;2024-01-16T04:59:19;-6.40;99.90
3154;DHT22;1587;48.630;9.046;2024-01-16T05:01:45;-6.50;99.90
3154;DHT22;1587;48.630;9.046;2024-01-16T05:04:10;-6.40;99.90
3154;DHT22;1587;48.630;9.046;2024-01-16T05:06:36;-6.30;99.90
3154;DHT22;1587;48.630;9.046;2024-01-16T05:09:01;-6.60;99.90
3154;DHT22;1587;48.630;9.046;2024-01-16T05:11:28;-6.50;99.90
3154;DHT22;1587;48.630;9.046;2024-01-16T05:16:26;-6.90;99.90
3154;DHT22;1587;48.630;9.046;2024-01-16T05:18:52;-6.80;99.90
3154;DHT22;1587;48.630;9.046;2024-01-16T05:21:19;-6.70;99.90
3154;DHT22;1587;48.630;9.046;2024-01-16T05:23:45;-6.80;99.90
3154;DHT22;1587;48.630;9.046;2024-01-16T05:26:10;-6.80;99.90
3154;DHT22;1587;48.630;9.046;2024-01-16T05:28:36;-6.70;99.90
3154;DHT22;1587;48.630;9.046;2024-01-16T05:31:01;-6.70;99.90
3154;DHT22;1587;48.630;9.046;2024-01-16T05:33:27;-6.70;99.90
3154;DHT22;1587;48.630;9.046;2024-01-16T05:35:53;-6.80;99.90
3154;DHT22;1587;48.630;9.046;2024-01-16T05:38:18;-6.60;99.90
3154;DHT22;1587;48.630;9.046;2024-01-16T05:40:43;-6.40;99.90
3154;DHT22;1587;48.630;9.046;2024-01-16T05:43:09;-6.10;99.90
3154;DHT22;1587;48.630;9.046;2024-01-16T05:45:34;-6.40;99.90
3154;DHT22;1587;48.630;9.046;2024-01-16T05:48:00;-6.40;99.90
3154;DHT22;1587;48.630;9.046;2024-01-16T05:50:25;-6.40;99.90
3154;DHT22;1587;48.630;9.046;2024-01-16T05:52:51;-6.70;99.90
3154;DHT22;1587;48.630;9.046;2024-01-16T05:55:16;-6.70;99.90
3154;DHT22;1587;48.630;9.046;2024-01-16T05:57:42;-6.70;99.90
3154;DHT22;1587;48.630;9.046;2024-01-16T06:00:09;-6.70;99.90
3154;DHT22;1587;48.630;9.046;2024-01-16T06:02:34;-6.60;99.90
3154;DHT22;1587;48.630;9.046;2024-01-16T06:05:00;-6.50;99.90
3154;DHT22;1587;48.630;9.046;2024-01-16T06:07:25;-6.60;99.90
3154;DHT22;1587;48.630;9.046;2024-01-16T06:09:51;-6.70;99.90
3154;DHT22;1587;48.630;9.046;2024-01-16T06:12:16;-6.80;99.90
3154;DHT22;1587;48.630;9.046;2024-01-16T06:14:42;-6.60;99.90
3154;DHT22;1587;48.630;9.046;2024-01-16T06:17:07;-6.40;99.90
3154;DHT22;1587;48.630;9.046;2024-01-16T06:19:33;-6.40;99.90
3154;DHT22;1587;48.630;9.046;2024-01-16T06:21:59;-6.50;99.90
3154;DHT22;1587;48.630;9.046;2024-01-16T06:24:25;-6.60;99.90
3154;DHT22;1587;48.630;9.046;2024-01-16T06:26:50;-6.60;99.90
3154;DHT22;1587;48.630;9.046;2024-01-16T06:29:16;-6.70;99.90
3154;DHT22;1587;48.630;9.046;2024-01-16T06:31:41;-6.50;99.90
3154;DHT22;1587;48.630;9.046;2024-01-16T06:34:07;-6.50;99.90
3154;DHT22;1587;48.630;9.046;2024-01-16T06:36:32;-6.50;99.90
3154;DHT22;1587;48.630;9.046;2024-01-16T06:38:58;-6.40;99.90
3154;DHT22;1587;48.630;9.046;2024-01-16T06:41:23;-6.40;99.90
3154;DHT22;1587;48.630;9.046;2024-01-16T06:43:48;-6.40;99.90
3154;DHT22;1587;48.630;9.046;2024-01-16T06:46:14;-6.40;99.90
3154;DHT22;1587;48.630;9.046;2024-01-16T06:48:39;-6.30;99.90
3154;DHT22;1587;48.630;9.046;2024-01-16T06:51:05;-6.40;99.90
3154;DHT22;1587;48.630;9.046;2024-01-16T06:53:30;-6.10;99.90
3154;DHT22;1587;48.630;9.046;2024-01-16T06:55:56;-6.00;99.90
3154;DHT22;1587;48.630;9.046;2024-01-16T06:58:21;-6.40;99.90
3154;DHT22;1587;48.630;9.046;2024-01-16T07:00:47;-5.90;99.90
3154;DHT22;1587;48.630;9.046;2024-01-16T07:03:13;-5.80;99.90
3154;DHT22;1587;48.630;9.046;2024-01-16T07:05:39;-5.70;99.90
3154;DHT22;1587;48.630;9.046;2024-01-16T07:08:06;-5.70;99.90
3154;DHT22;1587;48.630;9.046;2024-01-16T07:10:32;-5.80;99.90
3154;DHT22;1587;48.630;9.046;2024-01-16T07:12:57;-5.70;99.90
3154;DHT22;1587;48.630;9.046;2024-01-16T07:15:23;-5.80;99.90
3154;DHT22;1587;48.630;9.046;2024-01-16T07:17:48;-5.90;99.90
3154;DHT22;1587;48.630;9.046;2024-01-16T07:20:14;-5.80;99.90
3154;DHT22;1587;48.630;9.046;2024-01-16T07:22:39;-5.90;99.90
3154;DHT22;1587;48.630;9.046;2024-01-16T07:25:05;-5.90;99.90
3154;DHT22;1587;48.630;9.046;2024-01-16T07:27:31;-5.90;99.90
3154;DHT22;1587;48.630;9.046;2024-01-16T07:29:56;-5.90;99.90
3154;DHT22;1587;48.630;9.046;2024-01-16T07:32:22;-5.90;99.90
3154;DHT22;1587;48.630;9.046;2024-01-16T07:34:47;-5.70;99.90
3154;DHT22;1587;48.630;9.046;2024-01-16T07:37:13;-5.80;99.90
3154;DHT22;1587;48.630;9.046;2024-01-16T07:39:39;-5.80;99.90
3154;DHT22;1587;48.630;9.046;2024-01-16T07:42:04;-5.80;99.90
3154;DHT22;1587;48.630;9.046;2024-01-16T07:44:29;-5.70;99.90
3154;DHT22;1587;48.630;9.046;2024-01-16T07:46:55;-5.60;99.90
3154;DHT22;1587;48.630;9.046;2024-01-16T07:49:20;-5.50;99.90
3154;DHT22;1587;48.630;9.046;2024-01-16T07:51:46;-5.40;99.90
3154;DHT22;1587;48.630;9.046;2024-01-16T07:54:11;-5.30;99.90
3154;DHT22;1587;48.630;9.046;2024-01-16T07:56:38;-5.30;99.90
3154;DHT22;1587;48.630;9.046;2024-01-16T07:59:04;-5.30;99.90
3154;DHT22;1587;48.630;9.046;2024-01-16T08:01:29;-5.10;99.90
3154;DHT22;1587;48.630;9.046;2024-01-16T08:03:55;-4.90;99.90
3154;DHT22;1587;48.630;9.046;2024-01-16T08:06:21;-4.80;99.90
3154;DHT22;1587;48.630;9.046;2024-01-16T08:08:47;-4.70;99.90
3154;DHT22;1587;48.630;9.046;2024-01-16T08:11:12;-4.70;99.90
3154;DHT22;1587;48.630;9.046;2024-01-16T08:13:38;-4.60;99.90
3154;DHT22;1587;48.630;9.046;2024-01-16T08:16:04;-4.30;99.90
3154;DHT22;1587;48.630;9.046;2024-01-16T08:18:29;-4.30;99.90
3154;DHT22;1587;48.630;9.046;2024-01-16T08:20:56;-4.30;99.90
3154;DHT22;1587;48.630;9.046;2024-01-16T08:23:22;-4.20;99.90
3154;DHT22;1587;48.630;9.046;2024-01-16T08:25:47;-4.10;99.90
3154;DHT22;1587;48.630;9.046;2024-01-16T08:28:13;-4.00;99.90
3154;DHT22;1587;48.630;9.046;2024-01-16T08:30:39;-4.10;99.90
3154;DHT22;1587;48.630;9.046;2024-01-16T08:33:05;-4.10;99.90
3154;DHT22;1587;48.630;9.046;2024-01-16T08:35:30;-3.90;99.90
3154;DHT22;1587;48.630;9.046;2024-01-16T08:37:55;-3.80;99.90
3154;DHT22;1587;48.630;9.046;2024-01-16T08:42:47;-3.70;99.90
3154;DHT22;1587;48.630;9.046;2024-01-16T08:47:42;-3.30;99.90
3154;DHT22;1587;48.630;9.046;2024-01-16T08:50:08;-3.20;99.90
3154;DHT22;1587;48.630;9.046;2024-01-16T08:52:34;-3.30;99.90
3154;DHT22;1587;48.630;9.046;2024-01-16T08:55:00;-3.40;99.90
3154;DHT22;1587;48.630;9.046;2024-01-16T08:57:26;-3.30;99.90
3154;DHT22;1587;48.630;9.046;2024-01-16T08:59:52;-3.20;99.90
3154;DHT22;1587;48.630;9.046;2024-01-16T09:02:18;-2.50;99.90
3154;DHT22;1587;48.630;9.046;2024-01-16T09:04:43;-2.00;99.90
3154;DHT22;1587;48.630;9.046;2024-01-16T09:07:09;-1.00;99.90
3154;DHT22;1587;48.630;9.046;2024-01-16T09:09:34;0.10;99.90
3154;DHT22;1587;48.630;9.046;2024-01-16T09:12:00;1.30;99.90
3154;DHT22;1587;48.630;9.046;2024-01-16T09:14:26;1.70;99.90
3154;DHT22;1587;48.630;9.046;2024-01-16T09:16:51;1.70;99.90
3154;DHT22;1587;48.630;9.046;2024-01-16T09:19:18;1.00;99.90
3154;DHT22;1587;48.630;9.046;2024-01-16T09:21:43;0.70;99.90
3154;DHT22;1587;48.630;9.046;2024-01-16T09:24:09;0.10;99.90
3154;DHT22;1587;48.630;9.046;2024-01-16T09:26:35;0.00;99.90
3154;DHT22;1587;48.630;9.046;2024-01-16T09:29:01;0.40;99.90
3154;DHT22;1587;48.630;9.046;2024-01-16T09:31:27;0.50;99.90
3154;DHT22;1587;48.630;9.046;2024-01-16T09:33:52;0.50;99.90
3154;DHT22;1587;48.630;9.046;2024-01-16T09:36:17;0.20;99.90
3154;DHT22;1587;48.630;9.046;2024-01-16T09:38:43;-0.10;99.90
3154;DHT22;1587;48.630;9.046;2024-01-16T09:41:09;0.10;99.90
3154;DHT22;1587;48.630;9.046;2024-01-16T09:43:35;0.40;99.90
3154;DHT22;1587;48.630;9.046;2024-01-16T09:46:01;0.60;99.90
3154;DHT22;1587;48.630;9.046;2024-01-16T09:48:30;0.10;99.90
3154;DHT22;1587;48.630;9.046;2024-01-16T09:50:55;0.80;99.90
3154;DHT22;1587;48.630;9.046;2024-01-16T09:53:21;0.80;99.90
3154;DHT22;1587;48.630;9.046;2024-01-16T09:55:47;1.30;99.90
3154;DHT22;1587;48.630;9.046;2024-01-16T09:58:13;2.00;99.90
3154;DHT22;1587;48.630;9.046;2024-01-16T10:00:40;2.60;99.90
3154;DHT22;1587;48.630;9.046;2024-01-16T10:03:07;2.40;99.90
3154;DHT22;1587;48.630;9.046;2024-01-16T10:05:33;1.50;99.90
3154;DHT22;1587;48.630;9.046;2024-01-16T10:07:58;1.00;99.90
3154;DHT22;1587;48.630;9.046;2024-01-16T10:10:24;1.20;99.90
3154;DHT22;1587;48.630;9.046;2024-01-16T10:12:53;2.30;99.90
3154;DHT22;1587;48.630;9.046;2024-01-16T10:15:20;2.70;99.90
3154;DHT22;1587;48.630;9.046;2024-01-16T10:17:47;2.80;99.90
3154;DHT22;1587;48.630;9.046;2024-01-16T10:20:12;2.90;99.90
3154;DHT22;1587;48.630;9.046;2024-01-16T10:22:52;2.60;99.90
3154;DHT22;1587;48.630;9.046;2024-01-16T10:25:17;2.90;99.90
3154;DHT22;1587;48.630;9.046;2024-01-16T10:27:45;3.50;99.90
3154;DHT22;1587;48.630;9.046;2024-01-16T10:30:11;4.10;99.90
3154;DHT22;1587;48.630;9.046;2024-01-16T10:32:38;4.10;99.90
3154;DHT22;1587;48.630;9.046;2024-01-16T10:37:40;3.80;99.90
3154;DHT22;1587;48.630;9.046;2024-01-16T10:40:07;4.10;99.90
3154;DHT22;1587;48.630;9.046;2024-01-16T10:42:32;4.70;99.90
3154;DHT22;1587;48.630;9.046;2024-01-16T10:44:58;4.10;99.90
3154;DHT22;1587;48.630;9.046;2024-01-16T10:47:23;4.00;99.90
3154;DHT22;1587;48.630;9.046;2024-01-16T10:49:49;4.70;99.90
3154;DHT22;1587;48.630;9.046;2024-01-16T10:52:14;4.60;99.90
3154;DHT22;1587;48.630;9.046;2024-01-16T10:54:41;4.20;99.90
3154;DHT22;1587;48.630;9.046;2024-01-16T10:59:38;5.90;99.90
3154;DHT22;1587;48.630;9.046;2024-01-16T11:02:05;6.40;99.90
3154;DHT22;1587;48.630;9.046;2024-01-16T11:04:35;4.50;99.90
3154;DHT22;1587;48.630;9.046;2024-01-16T11:07:03;3.70;99.90
3154;DHT22;1587;48.630;9.046;2024-01-16T11:09:29;3.80;99.90
3154;DHT22;1587;48.630;9.046;2024-01-16T11:11:55;4.00;99.90
3154;DHT22;1587;48.630;9.046;2024-01-16T11:14:22;3.60;99.90
3154;DHT22;1587;48.630;9.046;2024-01-16T11:16:48;3.00;99.90
3154;DHT22;1587;48.630;9.046;2024-01-16T11:19:14;3.20;99.90
3154;DHT22;1587;48.630;9.046;2024-01-16T11:21:41;3.00;99.90
3154;DHT22;1587;48.630;9.046;2024-01-16T11:24:07;2.50;99.90
3154;DHT22;1587;48.630;9.046;2024-01-16T11:26:34;1.80;99.90
3154;DHT22;1587;48.630;9.046;2024-01-16T11:31:45;1.00;99.90
3154;DHT22;1587;48.630;9.046;2024-01-16T11:34:11;0.70;99.90
3154;DHT22;1587;48.630;9.046;2024-01-16T11:36:49;0.40;99.90
3154;DHT22;1587;48.630;9.046;2024-01-16T11:39:21;0.00;99.90
3154;DHT22;1587;48.630;9.046;2024-01-16T11:41:48;-0.20;99.90
3154;DHT22;1587;48.630;9.046;2024-01-16T11:47:00;-0.40;99.90
3154;DHT22;1587;48.630;9.046;2024-01-16T11:49:27;-0.60;99.90
3154;DHT22;1587;48.630;9.046;2024-01-16T11:51:52;-0.60;99.90
3154;DHT22;1587;48.630;9.046;2024-01-16T12:01:47;-0.50;99.90
3154;DHT22;1587;48.630;9.046;2024-01-16T12:04:15;-0.50;99.90
3154;DHT22;1587;48.630;9.046;2024-01-16T12:06:43;-0.50;99.90
3154;DHT22;1587;48.630;9.046;2024-01-16T12:09:12;-0.50;99.90
3154;DHT22;1587;48.630;9.046;2024-01-16T12:11:38;-1.00;99.90
3154;DHT22;1587;48.630;9.046;2024-01-16T12:14:03;-0.50;99.90
3154;DHT22;1587;48.630;9.046;2024-01-16T12:16:29;-0.80;99.90
3154;DHT22;1587;48.630;9.046;2024-01-16T12:19:07;-2.30;99.90
3154;DHT22;1587;48.630;9.046;2024-01-16T12:21:34;-0.60;99.90
3154;DHT22;1587;48.630;9.046;2024-01-16T12:23:59;-0.70;99.90
3154;DHT22;1587;48.630;9.046;2024-01-16T12:26:25;-1.20;99.90
3154;DHT22;1587;48.630;9.046;2024-01-16T12:28:51;-0.70;99.90
3154;DHT22;1587;48.630;9.046;2024-01-16T12:31:17;-0.70;99.90
3154;DHT22;1587;48.630;9.046;2024-01-16T12:33:43;-0.80;99.90
3154;DHT22;1587;48.630;9.046;2024-01-16T12:36:08;-0.90;99.90
3154;DHT22;1587;48.630;9.046;2024-01-16T12:38:36;-0.50;99.90
3154;DHT22;1587;48.630;9.046;2024-01-16T12:41:01;-0.60;99.90
3154;DHT22;1587;48.630;9.046;2024-01-16T12:43:27;-0.60;99.90
3154;DHT22;1587;48.630;9.046;2024-01-16T12:45:55;-0.50;99.90
3154;DHT22;1587;48.630;9.046;2024-01-16T12:48:22;-0.60;99.90
3154;DHT22;1587;48.630;9.046;2024-01-16T12:50:48;-0.60;99.90
3154;DHT22;1587;48.630;9.046;2024-01-16T12:53:14;-0.50;99.90
3154;DHT22;1587;48.630;9.046;2024-01-16T12:55:42;-0.70;99.90
3154;DHT22;1587;48.630;9.046;2024-01-16T12:58:20;0.50;99.90
3154;DHT22;1587;48.630;9.046;2024-01-16T13:00:46;-0.90;99.90
3154;DHT22;1587;48.630;9.046;2024-01-16T13:03:15;-0.80;99.90
3154;DHT22;1587;48.630;9.046;2024-01-16T13:08:08;-0.80;99.90
3154;DHT22;1587;48.630;9.046;2024-01-16T13:10:34;-0.70;99.90
3154;DHT22;1587;48.630;9.046;2024-01-16T13:13:13;-0.60;99.90
3154;DHT22;1587;48.630;9.046;2024-01-16T13:15:39;-0.40;99.90
3154;DHT22;1587;48.630;9.046;2024-01-16T13:18:05;-0.70;99.90
3154;DHT22;1587;48.630;9.046;2024-01-16T13:20:31;-0.60;99.90
3154;DHT22;1587;48.630;9.046;2024-01-16T13:22:56;-0.60;99.90
3154;DHT22;1587;48.630;9.046;2024-01-16T13:25:22;-0.70;99.90
3154;DHT22;1587;48.630;9.046;2024-01-16T13:27:47;-0.80;99.90
3154;DHT22;1587;48.630;9.046;2024-01-16T13:30:13;-0.80;99.90
3154;DHT22;1587;48.630;9.046;2024-01-16T13:32:40;-0.70;99.90
3154;DHT22;1587;48.630;9.046;2024-01-16T13:35:05;-0.80;99.90
3154;DHT22;1587;48.630;9.046;2024-01-16T13:37:33;-0.80;99.90
3154;DHT22;1587;48.630;9.046;2024-01-16T13:40:02;-0.50;99.90
3154;DHT22;1587;48.630;9.046;2024-01-16T13:42:29;-0.50;99.90
3154;DHT22;1587;48.630;9.046;2024-01-16T13:44:55;-0.70;99.90
3154;DHT22;1587;48.630;9.046;2024-01-16T13:47:20;-0.70;99.90
3154;DHT22;1587;48.630;9.046;2024-01-16T13:49:46;-0.80;99.90
3154;DHT22;1587;48.630;9.046;2024-01-16T13:52:12;-0.60;99.90
3154;DHT22;1587;48.630;9.046;2024-01-16T13:54:37;-0.90;99.90
3154;DHT22;1587;48.630;9.046;2024-01-16T13:57:04;-1.10;99.90
3154;DHT22;1587;48.630;9.046;2024-01-16T13:59:30;-1.00;99.90
3154;DHT22;1587;48.630;9.046;2024-01-16T14:01:55;-1.10;99.90
3154;DHT22;1587;48.630;9.046;2024-01-16T14:04:21;-1.10;99.90
3154;DHT22;1587;48.630;9.046;2024-01-16T14:06:46;-1.20;99.90
3154;DHT22;1587;48.630;9.046;2024-01-16T14:09:11;-1.30;99.90
3154;DHT22;1587;48.630;9.046;2024-01-16T14:11:39;-0.60;99.90
3154;DHT22;1587;48.630;9.046;2024-01-16T14:14:04;-0.80;99.90
3154;DHT22;1587;48.630;9.046;2024-01-16T14:16:30;-0.90;99.90
3154;DHT22;1587;48.630;9.046;2024-01-16T14:18:56;-0.70;99.90
3154;DHT22;1587;48.630;9.046;2024-01-16T14:21:21;-0.80;99.90
3154;DHT22;1587;48.630;9.046;2024-01-16T14:23:46;-1.00;99.90
3154;DHT22;1587;48.630;9.046;2024-01-16T14:26:12;-1.20;99.90
3154;DHT22;1587;48.630;9.046;2024-01-16T14:28:37;-1.20;99.90
3154;DHT22;1587;48.630;9.046;2024-01-16T14:31:03;-1.10;99.90
3154;DHT22;1587;48.630;9.046;2024-01-16T14:33:29;-0.90;99.90
3154;DHT22;1587;48.630;9.046;2024-01-16T14:35:55;-1.10;99.90
3154;DHT22;1587;48.630;9.046;2024-01-16T14:38:21;-1.10;99.90
3154;DHT22;1587;48.630;9.046;2024-01-16T14:40:46;-1.40;99.90
3154;DHT22;1587;48.630;9.046;2024-01-16T14:43:12;-1.00;99.90
3154;DHT22;1587;48.630;9.046;2024-01-16T14:45:37;-1.40;99.90
3154;DHT22;1587;48.630;9.046;2024-01-16T14:48:03;-1.80;99.90
3154;DHT22;1587;48.630;9.046;2024-01-16T14:50:29;-1.80;99.90
3154;DHT22;1587;48.630;9.046;2024-01-16T14:52:55;-1.90;99.90
3154;DHT22;1587;48.630;9.046;2024-01-16T14:55:21;-2.00;99.90
3154;DHT22;1587;48.630;9.046;2024-01-16T14:57:47;-2.10;99.90
3154;DHT22;1587;48.630;9.046;2024-01-16T15:00:18;-2.30;99.90
3154;DHT22;1587;48.630;9.046;2024-01-16T15:02:55;-2.40;99.90
3154;DHT22;1587;48.630;9.046;2024-01-16T15:05:20;-2.50;99.90
3154;DHT22;1587;48.630;9.046;2024-01-16T15:07:46;-2.50;99.90
3154;DHT22;1587;48.630;9.046;2024-01-16T15:10:12;-2.70;99.90
3154;DHT22;1587;48.630;9.046;2024-01-16T15:12:41;-2.80;99.90
3154;DHT22;1587;48.630;9.046;2024-01-16T15:15:07;-2.90;99.90
3154;DHT22;1587;48.630;9.046;2024-01-16T15:17:33;-3.00;99.90
3154;DHT22;1587;48.630;9.046;2024-01-16T15:19:58;-3.50;99.90
3154;DHT22;1587;48.630;9.046;2024-01-16T15:22:24;-3.40;99.90
3154;DHT22;1587;48.630;9.046;2024-01-16T15:24:49;-3.50;99.90
3154;DHT22;1587;48.630;9.046;2024-01-16T15:27:15;-3.50;99.90
3154;DHT22;1587;48.630;9.046;2024-01-16T15:29:41;-3.30;99.90
3154;DHT22;1587;48.630;9.046;2024-01-16T15:32:06;-3.50;99.90
3154;DHT22;1587;48.630;9.046;2024-01-16T15:34:32;-3.70;99.90
3154;DHT22;1587;48.630;9.046;2024-01-16T15:36:58;-3.70;99.90
3154;DHT22;1587;48.630;9.046;2024-01-16T15:39:24;-3.80;99.90
3154;DHT22;1587;48.630;9.046;2024-01-16T15:44:15;-3.50;99.90
3154;DHT22;1587;48.630;9.046;2024-01-16T15:47:00;-4.00;99.90
3154;DHT22;1587;48.630;9.046;2024-01-16T15:49:26;-4.20;99.90
3154;DHT22;1587;48.630;9.046;2024-01-16T15:51:52;-4.20;99.90
3154;DHT22;1587;48.630;9.046;2024-01-16T15:54:18;-4.30;99.90
3154;DHT22;1587;48.630;9.046;2024-01-16T15:56:43;-4.40;99.90
3154;DHT22;1587;48.630;9.046;2024-01-16T15:59:10;-4.50;99.90
3154;DHT22;1587;48.630;9.046;2024-01-16T16:01:39;-4.50;99.90
3154;DHT22;1587;48.630;9.046;2024-01-16T16:04:05;-4.60;99.90
3154;DHT22;1587;48.630;9.046;2024-01-16T16:06:34;-5.30;99.90
3154;DHT22;1587;48.630;9.046;2024-01-16T16:09:01;-4.80;99.90
3154;DHT22;1587;48.630;9.046;2024-01-16T16:11:26;-4.90;99.90
3154;DHT22;1587;48.630;9.046;2024-01-16T16:13:52;-4.80;99.90
3154;DHT22;1587;48.630;9.046;2024-01-16T16:16:17;-4.80;99.90
3154;DHT22;1587;48.630;9.046;2024-01-16T16:18:42;-4.80;99.90
3154;DHT22;1587;48.630;9.046;2024-01-16T16:21:08;-4.60;99.90
3154;DHT22;1587;48.630;9.046;2024-01-16T16:23:34;-4.50;99.90
3154;DHT22;1587;48.630;9.046;2024-01-16T16:26:00;-4.90;99.90
3154;DHT22;1587;48.630;9.046;2024-01-16T16:28:25;-4.30;99.90
3154;DHT22;1587;48.630;9.046;2024-01-16T16:30:51;-4.90;99.90
3154;DHT22;1587;48.630;9.046;2024-01-16T16:33:17;-5.20;99.90